Latest Coastal Weather Observations for Minlaton Airport

IDS60701

Issued at 1:01 am CST Tuesday 27 June 2017 (issued every 10 minutes, with the page automatically refreshed every 10 minutes)

About coastal observations | Map of coastal stations | Coastal observations for SA | Marine services | Other Formats
Station Details ID: 022031 Name: MINLATON AERO Lat: -34.75 Lon: 137.53 Height: 32.0 m
Data from the previous 72 hours. | See also: Recent months at Minlaton Airport
Date/Time
CST
Temp
°C
Wind Pressure Rain since
9am
mm
Weather Cloud Vis
km
Sea
Height
m
Swell
Dir  Spd
kts
Gust
kts
hPa Trend Height
m
Period
s
Dir
27/01:00am 8.6 E 7 8 1023.5 - 0.4 - - - - - - -
27/12:30am 9.6 E 7 8 1023.8 - 0.4 - - - - - - -
27/12:00am 9.8 E 9 9 1024.1 - 0.4 - - - - - - -
 
Date/Time
CST
Temp
°C
Wind Pressure Rain since
9am
mm
Weather Cloud Vis
km
Sea
Height
m
Swell
Dir  Spd
kts
Gust
kts
hPa Trend Height
m
Period
s
Dir
26/11:30pm 9.9 E 7 8 1024.4 - 0.4 - - - - - - -
26/11:00pm 10.1 E 8 8 1024.6 - 0.4 - - - - - - -
26/10:30pm 10.1 E 8 9 1024.9 - 0.4 - - - - - - -
26/10:00pm 10.0 ENE 7 9 1025.2 - 0.4 - - - - - - -
26/09:30pm 9.8 ENE 7 7 1025.3 - 0.4 - - - - - - -
26/09:00pm 10.7 E 7 8 1025.1 - 0.4 - - - - - - -
26/08:30pm 10.9 ENE 7 8 1025.2 - 0.4 - - - - - - -
26/08:00pm 10.7 E 6 7 1025.2 - 0.4 - - - - - - -
26/07:30pm 10.5 ESE 4 5 1025.1 - 0.4 - - - - - - -
26/07:00pm 11.2 CALM 0 3 1025.0 - 0.4 - - - - - - -
26/06:30pm 11.3 ESE 3 5 1024.5 - 0.4 - - - - - - -
26/06:00pm 11.9 NE 6 8 1024.2 - 0.4 - - - - - - -
26/05:30pm 12.1 NE 7 8 1024.2 - 0.4 - - - - - - -
26/05:00pm 12.8 ENE 8 10 1024.3 - 0.4 - - - - - - -
26/04:30pm 13.8 ENE 9 12 1023.8 - 0.4 - - - - - - -
26/04:00pm 14.4 N 5 8 1023.8 - 0.4 - - - - - - -
26/03:30pm 14.7 NNW 7 10 1024.0 - 0.4 - - - - - - -
26/03:00pm 15.4 NNW 5 7 1024.2 - 0.4 - - - - - - -
26/02:30pm 14.8 N 4 6 1024.1 - 0.4 - - - - - - -
26/02:00pm 13.6 NNW 6 7 1024.2 - 0.4 - - - - - - -
26/01:30pm 13.4 WNW 4 6 1024.5 - 0.4 - - - - - - -
26/01:00pm 13.0 W 5 7 1024.7 - 0.4 - - - - - - -
26/12:30pm 13.0 WNW 5 7 1025.0 - 0.2 - - - - - - -
26/12:00pm 13.9 NNW 3 10 1025.1 - 0.2 Recent precip. - - - - - -
26/11:30am 14.7 ENE 4 6 1025.4 - 0.2 - - - - - - -
26/11:00am 15.0 N 3 5 1025.4 - 0.0 - - - - - - -
26/10:30am 14.0 NNE 2 3 1025.4 - 0.0 - - - - - - -
26/10:00am 13.1 N 4 6 1025.5 - 0.0 - - - - - - -
26/09:30am 12.0 N 7 9 1025.4 - 0.0 - - - - - - -
26/09:00am 10.8 NNE 6 7 1025.1 - 0.6 - - - - - - -
26/08:30am 9.2 NNE 6 7 1024.9 - 0.6 - - - - - - -
26/08:00am 8.6 N 8 8 1024.7 - 0.6 - - - - - - -
26/07:30am 6.8 NNE 4 5 1024.3 - 0.6 - - - - - - -
26/07:00am 6.0 ENE 6 6 1024.0 - 0.6 - - - - - - -
26/06:30am 7.3 NE 8 8 1023.6 - 0.6 - - - - - - -
26/06:00am 6.5 NE 7 8 1023.5 - 0.6 - - - - - - -
26/05:30am 6.4 NNE 5 6 1023.3 - 0.6 - - - - - - -
26/05:00am 6.9 NE 7 7 1023.2 - 0.6 - - - - - - -
26/04:30am 5.9 NNE 7 7 1023.0 - 0.6 - - - - - - -
26/04:00am 7.0 NNE 2 4 1022.9 - 0.6 - - - - - - -
26/03:30am 5.7 ENE 3 4 1022.9 - 0.6 - - - - - - -
26/03:00am 5.5 SE 1 4 1022.9 - 0.6 - - - - - - -
26/02:30am 6.7 SE 5 5 1022.8 - 0.6 - - - - - - -
26/02:00am 5.8 SE 5 6 1022.6 - 0.6 - - - - - - -
26/01:30am 7.5 SE 6 6 1022.5 - 0.6 - - - - - - -
26/01:00am 6.4 E 1 3 1022.5 - 0.6 - - - - - - -
26/12:30am 7.1 S 4 4 1022.6 - 0.6 - - - - - - -
26/12:00am 9.1 WSW 4 5 1022.5 - 0.6 - - - - - - -
 
Date/Time
CST
Temp
°C
Wind Pressure Rain since
9am
mm
Weather Cloud Vis
km
Sea
Height
m
Swell
Dir  Spd
kts
Gust
kts
hPa Trend Height
m
Period
s
Dir
25/11:30pm 7.2 NW 2 3 1022.6 - 0.6 - - - - - - -
25/11:00pm 8.5 NNW 4 5 1022.5 - 0.6 - - - - - - -
25/10:30pm 8.0 NNW 1 4 1022.3 - 0.6 - - - - - - -
25/10:00pm 9.8 NW 4 5 1022.3 - 0.6 - - - - - - -
25/09:30pm 11.3 W 8 11 1022.3 - 0.6 - - - - - - -
25/09:00pm 11.2 WSW 9 11 1022.3 - 0.6 - - - - - - -
25/08:30pm 10.3 SW 5 6 1022.2 - 0.6 - - - - - - -
25/08:00pm 10.4 WSW 6 7 1022.1 - 0.6 - - - - - - -
25/07:30pm 9.9 SW 6 7 1021.7 - 0.6 - - - - - - -
25/07:00pm 11.1 SW 9 10 1021.3 - 0.6 - - - - - - -
25/06:30pm 12.6 SW 10 12 1021.2 - 0.6 - - - - - - -
25/06:00pm 13.0 WSW 9 11 1021.0 - 0.6 - - - - - - -
25/05:30pm 12.6 W 10 13 1020.9 - 0.6 - - - - - - -
25/05:00pm 12.5 W 9 10 1020.7 - 0.6 - - - - - - -
25/04:30pm 14.5 WSW 8 12 1020.7 - 0.6 - - - - - - -
25/04:00pm 14.5 WSW 10 13 1020.7 - 0.6 - - - - - - -
25/03:30pm 14.5 WSW 13 15 1020.4 - 0.6 - - - - - - -
25/03:00pm 14.3 W 13 17 1020.3 - 0.6 - - - - - - -
25/02:30pm 14.7 WSW 13 19 1019.9 - 0.6 - - - - - - -
25/02:00pm 14.8 SW 14 18 1019.9 - 0.6 - - - - - - -
25/01:30pm 15.5 WSW 16 20 1019.7 - 0.6 - - - - - - -
25/01:00pm 15.1 WSW 14 18 1019.9 - 0.6 - - - - - - -
25/12:30pm 14.4 WSW 10 13 1020.3 - 0.6 - - - - - - -
25/12:00pm 14.1 WSW 10 13 1020.5 - 0.6 - - - - - - -
25/11:30am 13.7 WSW 9 10 1020.8 - 0.6 - - - - - - -
25/11:00am 13.1 WSW 9 11 1021.0 - 0.6 - - - - - - -
25/10:30am 12.7 SSW 8 10 1020.9 - 0.6 - - - - - - -
25/10:00am 11.7 S 6 7 1020.8 - 0.6 - - - - - - -
25/09:30am 10.7 SW 5 7 1020.5 - 0.6 - - - - - - -
25/09:00am 11.7 WSW 6 7 1020.0 - 0.0 - - - - - - -
25/08:30am 10.8 W 8 11 1019.7 - 0.0 - - - - - - -
25/08:00am 8.1 CALM 0 0 1019.4 - 0.0 - - - - - - -
25/07:30am 6.8 ENE 3 3 1019.2 - 0.0 - - - - - - -
25/07:00am 6.3 E 5 7 1018.9 - 0.0 - - - - - - -
25/06:30am 5.6 ESE 5 6 1018.6 - 0.0 - - - - - - -
25/06:00am 6.5 E 4 5 1018.4 - 0.0 - - - - - - -
25/05:30am 5.1 E 4 5 1018.2 - 0.0 - - - - - - -
25/05:00am 4.8 SSE 2 4 1018.1 - 0.0 - - - - - - -
25/04:30am 5.7 W 4 6 1018.1 - 0.0 - - - - - - -
25/04:00am 7.6 WSW 5 6 1018.1 - 0.0 - - - - - - -
25/03:30am 7.6 WSW 4 6 1018.3 - 0.0 - - - - - - -
25/03:00am 7.2 NW 5 7 1018.5 - 0.0 - - - - - - -
25/02:30am 8.3 WNW 5 8 1018.6 - 0.0 - - - - - - -
25/02:00am 8.1 N 5 6 1018.8 - 0.0 - - - - - - -
25/01:30am 8.2 N 5 6 1018.8 - 0.0 - - - - - - -
25/01:00am 7.6 NNE 4 5 1018.9 - 0.0 - - - - - - -
25/12:30am 6.1 ENE 3 4 1018.9 - 0.0 - - - - - - -
25/12:00am 6.0 E 3 6 1018.9 - 0.0 - - - - - - -
 
Date/Time
CST
Temp
°C
Wind Pressure Rain since
9am
mm
Weather Cloud Vis
km
Sea
Height
m
Swell
Dir  Spd
kts
Gust
kts
hPa Trend Height
m
Period
s
Dir
24/11:30pm 6.8 CALM 0 0 1018.9 - 0.0 - - - - - - -
24/11:00pm 8.9 CALM 0 0 1019.1 - 0.0 - - - - - - -
24/10:30pm 7.8 CALM 0 0 1019.0 - 0.0 - - - - - - -
24/10:00pm 6.5 SSE 3 4 1019.1 - 0.0 - - - - - - -
24/09:30pm 7.0 SSE 5 5 1019.0 - 0.0 - - - - - - -
24/09:00pm 7.5 SSE 3 4 1019.0 - 0.0 - - - - - - -
24/08:30pm 8.4 SE 4 4 1019.0 - 0.0 - - - - - - -
24/08:00pm 9.8 SSE 5 6 1019.1 - 0.0 - - - - - - -
24/07:30pm 11.5 SSE 5 6 1018.9 - 0.0 - - - - - - -
24/07:00pm 10.5 SSE 6 6 1018.6 - 0.0 - - - - - - -
24/06:30pm 10.4 SSE 6 7 1018.5 - 0.0 - - - - - - -
24/06:00pm 10.5 S 7 8 1018.4 - 0.0 - - - - - - -
24/05:30pm 12.7 S 8 9 1018.4 - 0.0 - - - - - - -
24/05:00pm 14.1 SSW 9 12 1018.3 - 0.0 - - - - - - -
24/04:30pm 14.4 WSW 9 11 1018.2 - 0.0 - - - - - - -
24/04:00pm 15.4 WSW 9 11 1018.0 - 0.0 - - - - - - -
24/03:30pm 16.2 WSW 9 11 1017.8 - 0.0 - - - - - - -
24/03:00pm 17.8 W 8 10 1017.8 - 0.0 - - - - - - -
24/02:30pm 17.8 S 2 4 1017.7 - 0.0 - - - - - - -
24/02:00pm 17.7 N 1 4 1018.0 - 0.0 - - - - - - -
24/01:30pm 17.0 NNE 1 5 1018.3 - 0.0 - - - - - - -
24/01:00pm 16.8 SSE 2 5 1018.7 - 0.0 - - - - - - -
24/12:30pm 16.6 E 6 8 1019.0 - 0.0 - - - - - - -
24/12:00pm 15.9 E 7 9 1019.3 - 0.0 - - - - - - -
24/11:30am 15.6 E 6 8 1019.8 - 0.0 - - - - - - -
24/11:00am 14.4 E 5 7 1020.1 - 0.0 - - - - - - -
24/10:30am 14.0 S 5 7 1020.3 - 0.0 - - - - - - -
24/10:00am 12.5 ENE 9 11 1020.2 - 0.0 - - - - - - -
24/09:30am 11.6 ENE 9 11 1019.9 - 0.0 - - - - - - -
24/09:00am 9.4 E 8 9 1019.7 - 0.2 - - - - - - -
24/08:30am 8.4 E 10 11 1019.6 - 0.2 - - - - - - -
24/08:00am 8.0 S 7 9 1019.5 - 0.2 - - - - - - -
24/07:30am 8.8 E 11 12 1019.2 - 0.2 - - - - - - -
24/07:00am 8.8 E 10 12 1018.9 - 0.2 - - - - - - -
24/06:30am 9.7 E 9 10 1018.8 - 0.2 - - - - - - -
24/06:00am 9.7 ESE 9 10 1018.8 - 0.2 - - - - - - -
24/05:30am 9.2 ESE 8 9 1018.5 - 0.2 - - - - - - -
24/05:00am 7.8 SE 7 8 1018.5 - 0.2 - - - - - - -
24/04:30am 7.8 SSE 8 9 1018.5 - 0.2 - - - - - - -
24/04:00am 5.4 SE 6 8 1018.6 - 0.0 - - - - - - -
24/03:30am 5.4 ESE 4 5 1018.6 - 0.0 - - - - - - -
24/03:00am 5.4 SSE 6 6 1018.6 - 0.0 - - - - - - -
24/02:30am 5.0 ESE 5 7 1018.4 - 0.0 - - - - - - -
24/02:00am 5.1 ENE 3 4 1018.3 - 0.0 - - - - - - -
24/01:30am 6.6 NE 6 7 1018.6 - 0.0 - - - - - - -

Other Formats:

Comma delimited format used in spreadsheet applications
http://www.bom.gov.au/fwo/IDS60701/IDS60701.95659.axf

JavaScript Object Notation format (JSON) in row-major order
http://www.bom.gov.au/fwo/IDS60701/IDS60701.95659.json